sensor_id;sensor_type;location;lat;lon;timestamp;pressure;altitude;pressure_sealevel;temperature
72054;BMP280;59918;51.280;7.950;2023-08-24T00:02:07;98295.88;;;16.62
72054;BMP280;59918;51.280;7.950;2023-08-24T00:04:32;98296.91;;;16.61
72054;BMP280;59918;51.280;7.950;2023-08-24T00:06:58;98297.13;;;16.59
72054;BMP280;59918;51.280;7.950;2023-08-24T00:09:23;98298.16;;;16.58
72054;BMP280;59918;51.280;7.950;2023-08-24T00:11:48;98294.47;;;16.54
72054;BMP280;59918;51.280;7.950;2023-08-24T00:14:14;98285.28;;;16.52
72054;BMP280;59918;51.280;7.950;2023-08-24T00:16:39;98294.34;;;16.49
72054;BMP280;59918;51.280;7.950;2023-08-24T00:19:04;98288.94;;;16.51
72054;BMP280;59918;51.280;7.950;2023-08-24T00:21:30;98288.94;;;16.51
72054;BMP280;59918;51.280;7.950;2023-08-24T00:23:55;98288.59;;;16.47
72054;BMP280;59918;51.280;7.950;2023-08-24T00:26:20;98283.88;;;16.44
72054;BMP280;59918;51.280;7.950;2023-08-24T00:28:46;98291.88;;;16.43
72054;BMP280;59918;51.280;7.950;2023-08-24T00:31:11;98290.28;;;16.42
72054;BMP280;59918;51.280;7.950;2023-08-24T00:33:37;98279.34;;;16.40
72054;BMP280;59918;51.280;7.950;2023-08-24T00:36:03;98272.25;;;16.36
72054;BMP280;59918;51.280;7.950;2023-08-24T00:38:28;98267.84;;;16.36
72054;BMP280;59918;51.280;7.950;2023-08-24T00:40:54;98266.03;;;16.37
72054;BMP280;59918;51.280;7.950;2023-08-24T00:43:20;98266.84;;;16.37
72054;BMP280;59918;51.280;7.950;2023-08-24T00:45:45;98274.63;;;16.37
72054;BMP280;59918;51.280;7.950;2023-08-24T00:48:10;98271.69;;;16.34
72054;BMP280;59918;51.280;7.950;2023-08-24T00:50:35;98272.47;;;16.34
72054;BMP280;59918;51.280;7.950;2023-08-24T00:53:00;98268.06;;;16.35
72054;BMP280;59918;51.280;7.950;2023-08-24T00:55:26;98271.00;;;16.38
72054;BMP280;59918;51.280;7.950;2023-08-24T00:57:52;98264.53;;;16.41
72054;BMP280;59918;51.280;7.950;2023-08-24T01:00:17;98266.84;;;16.37
72054;BMP280;59918;51.280;7.950;2023-08-24T01:02:42;98271.47;;;16.35
72054;BMP280;59918;51.280;7.950;2023-08-24T01:05:08;98260.06;;;16.36
72054;BMP280;59918;51.280;7.950;2023-08-24T01:07:38;98264.25;;;16.37
72054;BMP280;59918;51.280;7.950;2023-08-24T01:10:05;98261.31;;;16.34
72054;BMP280;59918;51.280;7.950;2023-08-24T01:15:48;98266.16;;;16.30
72054;BMP280;59918;51.280;7.950;2023-08-24T01:18:16;98264.59;;;16.29
72054;BMP280;59918;51.280;7.950;2023-08-24T01:20:42;98255.22;;;16.28
72054;BMP280;59918;51.280;7.950;2023-08-24T01:26:14;98251.63;;;16.18
72054;BMP280;59918;51.280;7.950;2023-08-24T01:28:43;98261.22;;;16.17
72054;BMP280;59918;51.280;7.950;2023-08-24T01:31:09;98252.84;;;16.15
72054;BMP280;59918;51.280;7.950;2023-08-24T01:33:34;98257.47;;;16.13
72054;BMP280;59918;51.280;7.950;2023-08-24T01:35:59;98248.88;;;16.13
72054;BMP280;59918;51.280;7.950;2023-08-24T01:38:25;98251.72;;;16.11
72054;BMP280;59918;51.280;7.950;2023-08-24T01:41:08;98250.34;;;16.09
72054;BMP280;59918;51.280;7.950;2023-08-24T01:43:35;98247.44;;;16.06
72054;BMP280;59918;51.280;7.950;2023-08-24T01:46:03;98247.44;;;16.06
72054;BMP280;59918;51.280;7.950;2023-08-24T01:48:30;98244.72;;;16.01
72054;BMP280;59918;51.280;7.950;2023-08-24T01:51:00;98238.97;;;15.99
72054;BMP280;59918;51.280;7.950;2023-08-24T01:53:30;98238.41;;;15.97
72054;BMP280;59918;51.280;7.950;2023-08-24T01:55:56;98233.69;;;15.94
72054;BMP280;59918;51.280;7.950;2023-08-24T01:58:21;98221.16;;;15.91
72054;BMP280;59918;51.280;7.950;2023-08-24T02:00:46;98235.72;;;15.92
72054;BMP280;59918;51.280;7.950;2023-08-24T02:03:12;98245.28;;;15.91
72054;BMP280;59918;51.280;7.950;2023-08-24T02:05:37;98239.31;;;15.91
72054;BMP280;59918;51.280;7.950;2023-08-24T02:08:02;98230.53;;;15.92
72054;BMP280;59918;51.280;7.950;2023-08-24T02:10:28;98228.38;;;15.89
72054;BMP280;59918;51.280;7.950;2023-08-24T02:12:53;98235.81;;;15.85
72054;BMP280;59918;51.280;7.950;2023-08-24T02:15:18;98231.66;;;15.84
72054;BMP280;59918;51.280;7.950;2023-08-24T02:17:43;98220.25;;;15.85
72054;BMP280;59918;51.280;7.950;2023-08-24T02:20:09;98222.06;;;15.85
72054;BMP280;59918;51.280;7.950;2023-08-24T02:22:34;98223.88;;;15.84
72054;BMP280;59918;51.280;7.950;2023-08-24T02:25:00;98234.25;;;15.84
72054;BMP280;59918;51.280;7.950;2023-08-24T02:27:25;98235.50;;;15.82
72054;BMP280;59918;51.280;7.950;2023-08-24T02:29:50;98227.72;;;15.82
72054;BMP280;59918;51.280;7.950;2023-08-24T02:32:15;98229.28;;;15.83
72054;BMP280;59918;51.280;7.950;2023-08-24T02:34:41;98219.59;;;15.78
72054;BMP280;59918;51.280;7.950;2023-08-24T02:37:06;98230.75;;;15.79
72054;BMP280;59918;51.280;7.950;2023-08-24T02:39:31;98225.56;;;15.79
72054;BMP280;59918;51.280;7.950;2023-08-24T02:41:57;98233.56;;;15.77
72054;BMP280;59918;51.280;7.950;2023-08-24T02:44:22;98217.44;;;15.75
72054;BMP280;59918;51.280;7.950;2023-08-24T02:46:48;98210.69;;;15.74
72054;BMP280;59918;51.280;7.950;2023-08-24T02:49:13;98214.28;;;15.73
72054;BMP280;59918;51.280;7.950;2023-08-24T02:51:38;98207.31;;;15.74
72054;BMP280;59918;51.280;7.950;2023-08-24T02:54:04;98209.69;;;15.75
72054;BMP280;59918;51.280;7.950;2023-08-24T02:56:29;98206.84;;;15.77
72054;BMP280;59918;51.280;7.950;2023-08-24T02:58:54;98206.84;;;15.77
72054;BMP280;59918;51.280;7.950;2023-08-24T03:01:20;98207.31;;;15.74
72054;BMP280;59918;51.280;7.950;2023-08-24T03:03:45;98212.47;;;15.74
72054;BMP280;59918;51.280;7.950;2023-08-24T03:06:10;98210.34;;;15.71
72054;BMP280;59918;51.280;7.950;2023-08-24T03:08:35;98212.94;;;15.71
72054;BMP280;59918;51.280;7.950;2023-08-24T03:11:01;98218.13;;;15.71
72054;BMP280;59918;51.280;7.950;2023-08-24T03:13:27;98227.94;;;15.69
72054;BMP280;59918;51.280;7.950;2023-08-24T03:15:53;98229.50;;;15.70
72054;BMP280;59918;51.280;7.950;2023-08-24T03:18:19;98228.16;;;15.68
72054;BMP280;59918;51.280;7.950;2023-08-24T03:20:45;98228.38;;;15.66
72054;BMP280;59918;51.280;7.950;2023-08-24T03:23:10;98225.00;;;15.66
72054;BMP280;59918;51.280;7.950;2023-08-24T03:25:37;98222.97;;;15.68
72054;BMP280;59918;51.280;7.950;2023-08-24T03:28:03;98220.38;;;15.68
72054;BMP280;59918;51.280;7.950;2023-08-24T03:30:28;98218.91;;;15.71
72054;BMP280;59918;51.280;7.950;2023-08-24T03:32:53;98215.88;;;15.74
72054;BMP280;59918;51.280;7.950;2023-08-24T03:35:19;98221.72;;;15.81
72054;BMP280;59918;51.280;7.950;2023-08-24T03:37:44;98218.22;;;15.87
72054;BMP280;59918;51.280;7.950;2023-08-24T03:40:10;98213.50;;;15.96
72054;BMP280;59918;51.280;7.950;2023-08-24T03:42:35;98214.94;;;16.03
72054;BMP280;59918;51.280;7.950;2023-08-24T03:45:00;98209.66;;;16.09
72054;BMP280;59918;51.280;7.950;2023-08-24T03:47:26;98209.75;;;16.14
72054;BMP280;59918;51.280;7.950;2023-08-24T03:49:51;98216.66;;;16.20
72054;BMP280;59918;51.280;7.950;2023-08-24T03:52:18;98205.00;;;16.23
72054;BMP280;59918;51.280;7.950;2023-08-24T03:54:44;98213.91;;;16.27
72054;BMP280;59918;51.280;7.950;2023-08-24T03:57:09;98221.59;;;16.33
72054;BMP280;59918;51.280;7.950;2023-08-24T03:59:34;98222.47;;;16.39
72054;BMP280;59918;51.280;7.950;2023-08-24T04:02:00;98225.94;;;16.44
72054;BMP280;59918;51.280;7.950;2023-08-24T04:04:25;98210.72;;;16.47
72054;BMP280;59918;51.280;7.950;2023-08-24T04:06:50;98205.84;;;16.51
72054;BMP280;59918;51.280;7.950;2023-08-24T04:09:16;98208.44;;;16.51
72054;BMP280;59918;51.280;7.950;2023-08-24T04:11:41;98202.56;;;16.55
72054;BMP280;59918;51.280;7.950;2023-08-24T04:14:06;98192.50;;;16.59
72054;BMP280;59918;51.280;7.950;2023-08-24T04:16:31;98191.56;;;16.65
72054;BMP280;59918;51.280;7.950;2023-08-24T04:18:57;98195.28;;;16.69
72054;BMP280;59918;51.280;7.950;2023-08-24T04:21:22;98208.59;;;16.72
72054;BMP280;59918;51.280;7.950;2023-08-24T04:23:47;98212.97;;;16.72
72054;BMP280;59918;51.280;7.950;2023-08-24T04:26:12;98222.13;;;16.74
72054;BMP280;59918;51.280;7.950;2023-08-24T04:28:39;98223.25;;;16.78
72054;BMP280;59918;51.280;7.950;2023-08-24T04:31:04;98238.34;;;16.81
72054;BMP280;59918;51.280;7.950;2023-08-24T04:33:29;98238.13;;;16.82
72054;BMP280;59918;51.280;7.950;2023-08-24T04:35:54;98251.66;;;16.84
72054;BMP280;59918;51.280;7.950;2023-08-24T04:38:20;98262.06;;;16.84
72054;BMP280;59918;51.280;7.950;2023-08-24T04:40:52;98264.66;;;16.84
72054;BMP280;59918;51.280;7.950;2023-08-24T04:43:19;98265.78;;;16.88
72054;BMP280;59918;51.280;7.950;2023-08-24T04:45:49;98253.91;;;16.92
72054;BMP280;59918;51.280;7.950;2023-08-24T04:48:14;98245.41;;;16.97
72054;BMP280;59918;51.280;7.950;2023-08-24T04:50:42;98246.84;;;17.04
72054;BMP280;59918;51.280;7.950;2023-08-24T04:53:08;98255.19;;;17.06
72054;BMP280;59918;51.280;7.950;2023-08-24T04:55:33;98250.31;;;17.10
72054;BMP280;59918;51.280;7.950;2023-08-24T04:57:58;98253.25;;;17.13
72054;BMP280;59918;51.280;7.950;2023-08-24T05:00:24;98238.25;;;17.15
72054;BMP280;59918;51.280;7.950;2023-08-24T05:02:49;98225.25;;;17.15
72054;BMP280;59918;51.280;7.950;2023-08-24T05:05:16;98229.41;;;17.16
72054;BMP280;59918;51.280;7.950;2023-08-24T05:07:42;98222.72;;;17.20
72054;BMP280;59918;51.280;7.950;2023-08-24T05:10:07;98217.06;;;17.23
72054;BMP280;59918;51.280;7.950;2023-08-24T05:12:33;98218.41;;;17.25
72054;BMP280;59918;51.280;7.950;2023-08-24T05:14:58;98216.56;;;17.26
72054;BMP280;59918;51.280;7.950;2023-08-24T05:17:23;98216.56;;;17.26
72054;BMP280;59918;51.280;7.950;2023-08-24T05:19:56;98225.47;;;17.30
72054;BMP280;59918;51.280;7.950;2023-08-24T05:22:21;98234.88;;;17.31
72054;BMP280;59918;51.280;7.950;2023-08-24T05:24:46;98237.22;;;17.32
72054;BMP280;59918;51.280;7.950;2023-08-24T05:27:12;98239.56;;;17.34
72054;BMP280;59918;51.280;7.950;2023-08-24T05:29:39;98240.34;;;17.34
72054;BMP280;59918;51.280;7.950;2023-08-24T05:32:05;98242.28;;;17.39
72054;BMP280;59918;51.280;7.950;2023-08-24T05:34:30;98238.41;;;17.41
72054;BMP280;59918;51.280;7.950;2023-08-24T05:36:55;98239.97;;;17.42
72054;BMP280;59918;51.280;7.950;2023-08-24T05:39:20;98241.78;;;17.42
72054;BMP280;59918;51.280;7.950;2023-08-24T05:41:46;98240.53;;;17.44
72054;BMP280;59918;51.280;7.950;2023-08-24T05:44:11;98236.69;;;17.47
72054;BMP280;59918;51.280;7.950;2023-08-24T05:46:36;98236.75;;;17.52
72054;BMP280;59918;51.280;7.950;2023-08-24T05:49:02;98237.06;;;17.55
72054;BMP280;59918;51.280;7.950;2023-08-24T05:51:27;98236.34;;;17.59
72054;BMP280;59918;51.280;7.950;2023-08-24T05:53:53;98229.66;;;17.63
72054;BMP280;59918;51.280;7.950;2023-08-24T05:56:18;98212.53;;;17.67
72054;BMP280;59918;51.280;7.950;2023-08-24T05:58:43;98201.44;;;17.72
72054;BMP280;59918;51.280;7.950;2023-08-24T06:01:09;98200.16;;;17.74
72054;BMP280;59918;51.280;7.950;2023-08-24T06:03:34;98197.88;;;17.78
72054;BMP280;59918;51.280;7.950;2023-08-24T06:06:03;98189.13;;;17.84
72054;BMP280;59918;51.280;7.950;2023-08-24T06:08:29;98174.63;;;17.88
72054;BMP280;59918;51.280;7.950;2023-08-24T06:10:54;98175.72;;;17.91
72054;BMP280;59918;51.280;7.950;2023-08-24T06:13:19;98173.66;;;17.93
72054;BMP280;59918;51.280;7.950;2023-08-24T06:15:44;98169.22;;;17.94
72054;BMP280;59918;51.280;7.950;2023-08-24T06:18:10;98159.06;;;17.92
72054;BMP280;59918;51.280;7.950;2023-08-24T06:20:35;98150.94;;;17.89
72054;BMP280;59918;51.280;7.950;2023-08-24T06:23:00;98153.00;;;17.87
72054;BMP280;59918;51.280;7.950;2023-08-24T06:25:25;98145.72;;;17.89
72054;BMP280;59918;51.280;7.950;2023-08-24T06:27:51;98136.13;;;17.90
72054;BMP280;59918;51.280;7.950;2023-08-24T06:30:16;98132.03;;;17.93
72054;BMP280;59918;51.280;7.950;2023-08-24T06:32:41;98125.59;;;18.01
72054;BMP280;59918;51.280;7.950;2023-08-24T06:35:07;98110.38;;;18.09
72054;BMP280;59918;51.280;7.950;2023-08-24T06:37:32;98111.03;;;18.21
72054;BMP280;59918;51.280;7.950;2023-08-24T06:39:57;98108.31;;;18.32
72054;BMP280;59918;51.280;7.950;2023-08-24T06:42:22;98096.94;;;18.43
72054;BMP280;59918;51.280;7.950;2023-08-24T06:44:48;98093.91;;;18.51
72054;BMP280;59918;51.280;7.950;2023-08-24T06:47:13;98092.66;;;18.59
72054;BMP280;59918;51.280;7.950;2023-08-24T06:49:38;98082.34;;;18.68
72054;BMP280;59918;51.280;7.950;2023-08-24T06:52:04;98084.81;;;18.85
72054;BMP280;59918;51.280;7.950;2023-08-24T06:54:29;98074.56;;;19.04
72054;BMP280;59918;51.280;7.950;2023-08-24T06:56:54;98077.59;;;19.23
72054;BMP280;59918;51.280;7.950;2023-08-24T06:59:20;98074.03;;;19.38
72054;BMP280;59918;51.280;7.950;2023-08-24T07:01:45;98054.00;;;19.54
72054;BMP280;59918;51.280;7.950;2023-08-24T07:04:10;98048.63;;;19.70
72054;BMP280;59918;51.280;7.950;2023-08-24T07:06:35;98050.00;;;19.82
72054;BMP280;59918;51.280;7.950;2023-08-24T07:09:01;98047.97;;;19.99
72054;BMP280;59918;51.280;7.950;2023-08-24T07:11:26;98031.03;;;20.12
72054;BMP280;59918;51.280;7.950;2023-08-24T07:13:51;98023.75;;;20.23
72054;BMP280;59918;51.280;7.950;2023-08-24T07:16:16;98025.59;;;20.33
72054;BMP280;59918;51.280;7.950;2023-08-24T07:18:42;98020.38;;;20.43
72054;BMP280;59918;51.280;7.950;2023-08-24T07:21:07;98011.22;;;20.55
72054;BMP280;59918;51.280;7.950;2023-08-24T07:23:32;98004.22;;;20.70
72054;BMP280;59918;51.280;7.950;2023-08-24T07:25:57;98006.53;;;20.86
72054;BMP280;59918;51.280;7.950;2023-08-24T07:28:22;98002.59;;;21.04
72054;BMP280;59918;51.280;7.950;2023-08-24T07:30:48;98015.88;;;21.27
72054;BMP280;59918;51.280;7.950;2023-08-24T07:33:13;98008.53;;;21.49
72054;BMP280;59918;51.280;7.950;2023-08-24T07:35:38;98005.59;;;21.60
72054;BMP280;59918;51.280;7.950;2023-08-24T07:38:03;98008.19;;;21.65
72054;BMP280;59918;51.280;7.950;2023-08-24T07:40:29;98001.91;;;21.66
72054;BMP280;59918;51.280;7.950;2023-08-24T07:42:54;98002.94;;;21.70
72054;BMP280;59918;51.280;7.950;2023-08-24T07:45:19;97999.28;;;21.66
72054;BMP280;59918;51.280;7.950;2023-08-24T07:47:44;98000.84;;;21.67
72054;BMP280;59918;51.280;7.950;2023-08-24T07:50:10;98003.72;;;21.75
72054;BMP280;59918;51.280;7.950;2023-08-24T07:52:37;98012.03;;;21.87
72054;BMP280;59918;51.280;7.950;2023-08-24T07:55:03;98020.09;;;21.96
72054;BMP280;59918;51.280;7.950;2023-08-24T07:57:29;98013.00;;;22.01
72054;BMP280;59918;51.280;7.950;2023-08-24T07:59:54;98002.75;;;22.04
72054;BMP280;59918;51.280;7.950;2023-08-24T08:02:20;98000.63;;;22.11
72054;BMP280;59918;51.280;7.950;2023-08-24T08:04:45;97997.34;;;22.34
72054;BMP280;59918;51.280;7.950;2023-08-24T08:07:10;98001.72;;;22.76
72054;BMP280;59918;51.280;7.950;2023-08-24T08:09:36;98004.28;;;23.14
72054;BMP280;59918;51.280;7.950;2023-08-24T08:12:02;98005.88;;;23.34
72054;BMP280;59918;51.280;7.950;2023-08-24T08:14:27;98003.81;;;23.54
72054;BMP280;59918;51.280;7.950;2023-08-24T08:16:52;98008.22;;;23.63
72054;BMP280;59918;51.280;7.950;2023-08-24T08:19:18;98013.47;;;23.63
72054;BMP280;59918;51.280;7.950;2023-08-24T08:21:43;98011.13;;;23.80
72054;BMP280;59918;51.280;7.950;2023-08-24T08:24:08;98019.25;;;24.02
72054;BMP280;59918;51.280;7.950;2023-08-24T08:26:33;98016.97;;;24.14
72054;BMP280;59918;51.280;7.950;2023-08-24T08:28:59;98014.38;;;24.32
72054;BMP280;59918;51.280;7.950;2023-08-24T08:31:24;98018.63;;;24.46
72054;BMP280;59918;51.280;7.950;2023-08-24T08:33:49;98017.53;;;24.65
72054;BMP280;59918;51.280;7.950;2023-08-24T08:36:14;98018.56;;;24.83
72054;BMP280;59918;51.280;7.950;2023-08-24T08:38:40;98002.03;;;24.95
72054;BMP280;59918;51.280;7.950;2023-08-24T08:41:05;98000.22;;;25.09
72054;BMP280;59918;51.280;7.950;2023-08-24T08:43:30;98004.41;;;25.24
72054;BMP280;59918;51.280;7.950;2023-08-24T08:45:56;97996.44;;;25.42
72054;BMP280;59918;51.280;7.950;2023-08-24T08:48:23;97992.97;;;25.60
72054;BMP280;59918;51.280;7.950;2023-08-24T08:50:49;97991.44;;;25.80
72054;BMP280;59918;51.280;7.950;2023-08-24T08:53:16;97994.63;;;26.04
72054;BMP280;59918;51.280;7.950;2023-08-24T08:55:41;97975.34;;;26.17
72054;BMP280;59918;51.280;7.950;2023-08-24T08:58:08;97974.25;;;26.31
72054;BMP280;59918;51.280;7.950;2023-08-24T09:00:33;97977.44;;;26.63
72054;BMP280;59918;51.280;7.950;2023-08-24T09:03:00;97966.28;;;26.88
72054;BMP280;59918;51.280;7.950;2023-08-24T09:05:26;97962.06;;;27.17
72054;BMP280;59918;51.280;7.950;2023-08-24T09:07:54;97951.75;;;27.37
72054;BMP280;59918;51.280;7.950;2023-08-24T09:10:19;97950.56;;;27.52
72054;BMP280;59918;51.280;7.950;2023-08-24T09:12:45;97951.84;;;27.71
72054;BMP280;59918;51.280;7.950;2023-08-24T09:15:10;97942.69;;;27.93
72054;BMP280;59918;51.280;7.950;2023-08-24T09:17:35;97934.94;;;28.22
72054;BMP280;59918;51.280;7.950;2023-08-24T09:20:06;97930.06;;;28.41
72054;BMP280;59918;51.280;7.950;2023-08-24T09:22:38;97927.75;;;28.31
72054;BMP280;59918;51.280;7.950;2023-08-24T09:25:04;97923.91;;;28.20
72054;BMP280;59918;51.280;7.950;2023-08-24T09:27:29;97916.28;;;28.19
72054;BMP280;59918;51.280;7.950;2023-08-24T09:29:54;97912.06;;;28.34
72054;BMP280;59918;51.280;7.950;2023-08-24T09:32:30;97913.94;;;28.34
72054;BMP280;59918;51.280;7.950;2023-08-24T09:34:58;97913.00;;;28.30
72054;BMP280;59918;51.280;7.950;2023-08-24T09:37:31;97908.16;;;28.40
72054;BMP280;59918;51.280;7.950;2023-08-24T09:40:07;97883.69;;;28.60
72054;BMP280;59918;51.280;7.950;2023-08-24T09:42:40;97884.47;;;28.98
72054;BMP280;59918;51.280;7.950;2023-08-24T09:45:07;97878.78;;;29.44
72054;BMP280;59918;51.280;7.950;2023-08-24T09:47:32;97872.09;;;29.67
72054;BMP280;59918;51.280;7.950;2023-08-24T09:49:58;97862.34;;;30.00
72054;BMP280;59918;51.280;7.950;2023-08-24T09:52:28;97860.56;;;30.24
72054;BMP280;59918;51.280;7.950;2023-08-24T09:54:55;97843.25;;;30.82
72054;BMP280;59918;51.280;7.950;2023-08-24T09:57:21;97839.31;;;31.51
72054;BMP280;59918;51.280;7.950;2023-08-24T09:59:48;97831.03;;;32.06
72054;BMP280;59918;51.280;7.950;2023-08-24T10:02:18;97827.53;;;32.45
72054;BMP280;59918;51.280;7.950;2023-08-24T10:04:47;97831.13;;;32.68
72054;BMP280;59918;51.280;7.950;2023-08-24T10:07:19;97833.78;;;32.68
72054;BMP280;59918;51.280;7.950;2023-08-24T10:09:52;97838.63;;;32.62
72054;BMP280;59918;51.280;7.950;2023-08-24T10:12:24;97831.47;;;32.97
72054;BMP280;59918;51.280;7.950;2023-08-24T10:15:01;97842.75;;;33.24
72054;BMP280;59918;51.280;7.950;2023-08-24T10:17:27;97846.78;;;33.00
72054;BMP280;59918;51.280;7.950;2023-08-24T10:19:53;97846.53;;;32.74
72054;BMP280;59918;51.280;7.950;2023-08-24T10:22:20;97849.66;;;32.79
72054;BMP280;59918;51.280;7.950;2023-08-24T10:24:47;97857.50;;;32.57
72054;BMP280;59918;51.280;7.950;2023-08-24T10:27:14;97852.00;;;32.81
72054;BMP280;59918;51.280;7.950;2023-08-24T10:29:41;97864.78;;;33.37
72054;BMP280;59918;51.280;7.950;2023-08-24T10:32:08;97861.34;;;34.08
72054;BMP280;59918;51.280;7.950;2023-08-24T10:34:33;97870.09;;;34.90
72054;BMP280;59918;51.280;7.950;2023-08-24T10:37:09;97881.75;;;34.79
72054;BMP280;59918;51.280;7.950;2023-08-24T10:39:35;97873.94;;;34.70
72054;BMP280;59918;51.280;7.950;2023-08-24T10:42:01;97869.69;;;34.88
72054;BMP280;59918;51.280;7.950;2023-08-24T10:44:36;97868.78;;;35.03
72054;BMP280;59918;51.280;7.950;2023-08-24T10:47:14;97871.28;;;34.93
72054;BMP280;59918;51.280;7.950;2023-08-24T10:52:24;97860.84;;;35.61
72054;BMP280;59918;51.280;7.950;2023-08-24T10:54:51;97852.63;;;35.73
72054;BMP280;59918;51.280;7.950;2023-08-24T10:57:18;97860.13;;;35.90
72054;BMP280;59918;51.280;7.950;2023-08-24T10:59:43;97845.13;;;36.14
72054;BMP280;59918;51.280;7.950;2023-08-24T11:02:17;97844.91;;;35.68
72054;BMP280;59918;51.280;7.950;2023-08-24T11:05:04;97850.66;;;35.41
72054;BMP280;59918;51.280;7.950;2023-08-24T11:07:29;97846.19;;;34.97
72054;BMP280;59918;51.280;7.950;2023-08-24T11:09:54;97842.91;;;33.99
72054;BMP280;59918;51.280;7.950;2023-08-24T11:12:20;97855.50;;;33.65
72054;BMP280;59918;51.280;7.950;2023-08-24T11:14:52;97851.41;;;33.71
72054;BMP280;59918;51.280;7.950;2023-08-24T11:17:19;97840.59;;;34.20
72054;BMP280;59918;51.280;7.950;2023-08-24T11:19:52;97840.53;;;34.58
72054;BMP280;59918;51.280;7.950;2023-08-24T11:22:18;97832.72;;;34.68
72054;BMP280;59918;51.280;7.950;2023-08-24T11:24:44;97832.31;;;34.66
72054;BMP280;59918;51.280;7.950;2023-08-24T11:27:09;97834.31;;;34.72
72054;BMP280;59918;51.280;7.950;2023-08-24T11:29:35;97830.94;;;34.75
72054;BMP280;59918;51.280;7.950;2023-08-24T11:32:02;97827.31;;;34.87
72054;BMP280;59918;51.280;7.950;2023-08-24T11:34:29;97823.41;;;35.06
72054;BMP280;59918;51.280;7.950;2023-08-24T11:36:54;97828.25;;;34.98
72054;BMP280;59918;51.280;7.950;2023-08-24T11:39:21;97831.28;;;34.74
72054;BMP280;59918;51.280;7.950;2023-08-24T11:44:21;97828.50;;;34.45
72054;BMP280;59918;51.280;7.950;2023-08-24T11:46:47;97822.59;;;34.32
72054;BMP280;59918;51.280;7.950;2023-08-24T11:49:12;97821.59;;;34.44
72054;BMP280;59918;51.280;7.950;2023-08-24T11:51:37;97813.28;;;34.71
72054;BMP280;59918;51.280;7.950;2023-08-24T11:54:03;97801.16;;;34.73
72054;BMP280;59918;51.280;7.950;2023-08-24T11:56:28;97816.59;;;34.39
72054;BMP280;59918;51.280;7.950;2023-08-24T11:58:53;97820.75;;;33.99
72054;BMP280;59918;51.280;7.950;2023-08-24T12:01:19;97812.13;;;34.05
72054;BMP280;59918;51.280;7.950;2023-08-24T12:03:44;97800.81;;;34.12
72054;BMP280;59918;51.280;7.950;2023-08-24T12:06:16;97791.97;;;34.08
72054;BMP280;59918;51.280;7.950;2023-08-24T12:08:45;97787.44;;;34.53
72054;BMP280;59918;51.280;7.950;2023-08-24T12:11:15;97787.78;;;34.96
72054;BMP280;59918;51.280;7.950;2023-08-24T12:13:45;97789.56;;;34.88
72054;BMP280;59918;51.280;7.950;2023-08-24T12:16:10;97797.06;;;34.57
72054;BMP280;59918;51.280;7.950;2023-08-24T12:19:06;97803.97;;;33.42
72054;BMP280;59918;51.280;7.950;2023-08-24T12:21:32;97787.69;;;32.64
72054;BMP280;59918;51.280;7.950;2023-08-24T12:24:01;97804.03;;;32.20
72054;BMP280;59918;51.280;7.950;2023-08-24T12:26:27;97800.75;;;32.11
72054;BMP280;59918;51.280;7.950;2023-08-24T12:28:55;97791.09;;;32.95
72054;BMP280;59918;51.280;7.950;2023-08-24T12:31:26;97785.53;;;33.71
72054;BMP280;59918;51.280;7.950;2023-08-24T12:34:05;97770.38;;;34.35
72054;BMP280;59918;51.280;7.950;2023-08-24T12:36:38;97777.63;;;34.82
72054;BMP280;59918;51.280;7.950;2023-08-24T12:39:05;97770.38;;;35.08
72054;BMP280;59918;51.280;7.950;2023-08-24T12:41:31;97766.63;;;35.71
72054;BMP280;59918;51.280;7.950;2023-08-24T12:43:56;97778.41;;;36.35
72054;BMP280;59918;51.280;7.950;2023-08-24T12:46:22;97775.66;;;36.68
72054;BMP280;59918;51.280;7.950;2023-08-24T12:48:48;97780.75;;;36.86
72054;BMP280;59918;51.280;7.950;2023-08-24T12:51:13;97764.84;;;37.07
72054;BMP280;59918;51.280;7.950;2023-08-24T12:53:38;97751.34;;;37.85
72054;BMP280;59918;51.280;7.950;2023-08-24T12:56:03;97744.47;;;39.11
72054;BMP280;59918;51.280;7.950;2023-08-24T12:58:29;97745.69;;;39.95
72054;BMP280;59918;51.280;7.950;2023-08-24T13:00:55;97745.38;;;40.40
72054;BMP280;59918;51.280;7.950;2023-08-24T13:03:20;97745.22;;;41.01
72054;BMP280;59918;51.280;7.950;2023-08-24T13:05:45;97739.25;;;40.33
72054;BMP280;59918;51.280;7.950;2023-08-24T13:08:10;97742.78;;;39.66
72054;BMP280;59918;51.280;7.950;2023-08-24T13:10:36;97739.09;;;39.25
72054;BMP280;59918;51.280;7.950;2023-08-24T13:13:02;97741.47;;;38.09
72054;BMP280;59918;51.280;7.950;2023-08-24T13:15:27;97734.81;;;37.52
72054;BMP280;59918;51.280;7.950;2023-08-24T13:17:52;97733.53;;;37.25
72054;BMP280;59918;51.280;7.950;2023-08-24T13:20:17;97722.25;;;36.95
72054;BMP280;59918;51.280;7.950;2023-08-24T13:22:43;97704.31;;;37.06
72054;BMP280;59918;51.280;7.950;2023-08-24T13:25:08;97702.13;;;36.15
72054;BMP280;59918;51.280;7.950;2023-08-24T13:27:34;97711.00;;;34.93
72054;BMP280;59918;51.280;7.950;2023-08-24T13:30:00;97707.19;;;33.98
72054;BMP280;59918;51.280;7.950;2023-08-24T13:32:25;97698.19;;;33.09
72054;BMP280;59918;51.280;7.950;2023-08-24T13:34:51;97699.34;;;32.28
72054;BMP280;59918;51.280;7.950;2023-08-24T13:37:19;97688.31;;;31.68
72054;BMP280;59918;51.280;7.950;2023-08-24T13:39:44;97694.69;;;31.24
72054;BMP280;59918;51.280;7.950;2023-08-24T13:42:10;97683.72;;;30.75
72054;BMP280;59918;51.280;7.950;2023-08-24T13:44:35;97684.44;;;30.25
72054;BMP280;59918;51.280;7.950;2023-08-24T13:47:00;97668.81;;;29.88
72054;BMP280;59918;51.280;7.950;2023-08-24T13:49:25;97676.13;;;29.59
72054;BMP280;59918;51.280;7.950;2023-08-24T13:51:50;97674.25;;;29.27
72054;BMP280;59918;51.280;7.950;2023-08-24T13:54:17;97694.50;;;29.03
72054;BMP280;59918;51.280;7.950;2023-08-24T13:56:44;97689.06;;;28.79
72054;BMP280;59918;51.280;7.950;2023-08-24T13:59:09;97670.84;;;28.58
72054;BMP280;59918;51.280;7.950;2023-08-24T14:01:35;97650.69;;;28.45
72054;BMP280;59918;51.280;7.950;2023-08-24T14:04:02;97640.56;;;28.18
72054;BMP280;59918;51.280;7.950;2023-08-24T14:06:34;97649.34;;;27.93
72054;BMP280;59918;51.280;7.950;2023-08-24T14:08:59;97662.97;;;27.67
72054;BMP280;59918;51.280;7.950;2023-08-24T14:11:25;97661.63;;;27.44
72054;BMP280;59918;51.280;7.950;2023-08-24T14:13:51;97668.47;;;27.28
72054;BMP280;59918;51.280;7.950;2023-08-24T14:16:17;97677.16;;;27.20